sensor_id;sensor_type;location;lat;lon;timestamp;pressure;altitude;pressure_sealevel;temperature;humidity
80644;BME280;70010;60.224;24.712;2023-07-20T00:00:50;99868.60;;;10.97;64.00
80644;BME280;70010;60.224;24.712;2023-07-20T00:03:15;99871.39;;;11.34;61.97
80644;BME280;70010;60.224;24.712;2023-07-20T00:05:41;99872.91;;;11.52;62.14
80644;BME280;70010;60.224;24.712;2023-07-20T00:08:06;99869.74;;;11.17;63.02
80644;BME280;70010;60.224;24.712;2023-07-20T00:10:31;99869.42;;;11.20;63.51
80644;BME280;70010;60.224;24.712;2023-07-20T00:12:56;99865.73;;;11.00;64.98
80644;BME280;70010;60.224;24.712;2023-07-20T00:15:22;99869.60;;;10.37;67.56
80644;BME280;70010;60.224;24.712;2023-07-20T00:17:47;99867.90;;;10.23;68.22
80644;BME280;70010;60.224;24.712;2023-07-20T00:20:13;99865.38;;;10.22;69.01
80644;BME280;70010;60.224;24.712;2023-07-20T00:22:38;99863.18;;;10.34;68.42
80644;BME280;70010;60.224;24.712;2023-07-20T00:25:04;99862.39;;;10.79;67.80
80644;BME280;70010;60.224;24.712;2023-07-20T00:27:29;99859.75;;;10.03;68.98
80644;BME280;70010;60.224;24.712;2023-07-20T00:29:54;99857.09;;;10.39;68.76
80644;BME280;70010;60.224;24.712;2023-07-20T00:32:20;99851.93;;;10.31;68.51
80644;BME280;70010;60.224;24.712;2023-07-20T00:34:45;99851.32;;;10.39;68.74
80644;BME280;70010;60.224;24.712;2023-07-20T00:37:10;99849.21;;;10.63;67.19
80644;BME280;70010;60.224;24.712;2023-07-20T00:39:36;99848.90;;;9.96;69.99
80644;BME280;70010;60.224;24.712;2023-07-20T00:42:01;99851.07;;;9.72;71.97
80644;BME280;70010;60.224;24.712;2023-07-20T00:44:27;99853.31;;;9.75;73.62
80644;BME280;70010;60.224;24.712;2023-07-20T00:46:52;99849.03;;;9.85;74.17
80644;BME280;70010;60.224;24.712;2023-07-20T00:49:18;99843.91;;;10.04;74.92
80644;BME280;70010;60.224;24.712;2023-07-20T00:51:43;99843.14;;;10.08;74.56
80644;BME280;70010;60.224;24.712;2023-07-20T00:54:09;99846.76;;;9.93;74.92
80644;BME280;70010;60.224;24.712;2023-07-20T00:56:34;99847.30;;;10.12;73.90
80644;BME280;70010;60.224;24.712;2023-07-20T00:58:59;99846.80;;;10.62;75.75
80644;BME280;70010;60.224;24.712;2023-07-20T01:01:24;99845.40;;;10.14;72.90
80644;BME280;70010;60.224;24.712;2023-07-20T01:03:49;99848.35;;;9.72;72.49
80644;BME280;70010;60.224;24.712;2023-07-20T01:06:24;99849.63;;;9.74;73.17
80644;BME280;70010;60.224;24.712;2023-07-20T01:08:45;99847.37;;;10.22;73.62
80644;BME280;70010;60.224;24.712;2023-07-20T01:11:10;99848.48;;;10.33;69.77
80644;BME280;70010;60.224;24.712;2023-07-20T01:13:31;99849.01;;;11.79;66.30
80644;BME280;70010;60.224;24.712;2023-07-20T01:15:57;99850.52;;;11.30;67.06
80644;BME280;70010;60.224;24.712;2023-07-20T01:18:22;99847.66;;;10.71;68.19
80644;BME280;70010;60.224;24.712;2023-07-20T01:20:47;99850.56;;;10.95;66.36
80644;BME280;70010;60.224;24.712;2023-07-20T01:23:28;99851.25;;;10.83;67.07
80644;BME280;70010;60.224;24.712;2023-07-20T01:25:48;99853.24;;;9.99;70.32
80644;BME280;70010;60.224;24.712;2023-07-20T01:30:45;99850.16;;;12.44;60.73
80644;BME280;70010;60.224;24.712;2023-07-20T01:32:55;99849.32;;;12.93;59.92
80644;BME280;70010;60.224;24.712;2023-07-20T01:35:23;99849.62;;;11.91;61.42
80644;BME280;70010;60.224;24.712;2023-07-20T01:37:46;99849.38;;;12.79;59.70
80644;BME280;70010;60.224;24.712;2023-07-20T01:40:11;99854.40;;;11.94;64.20
80644;BME280;70010;60.224;24.712;2023-07-20T01:42:35;99852.53;;;11.28;65.39
80644;BME280;70010;60.224;24.712;2023-07-20T01:45:01;99841.85;;;13.69;58.42
80644;BME280;70010;60.224;24.712;2023-07-20T01:47:26;99850.61;;;10.85;65.84
80644;BME280;70010;60.224;24.712;2023-07-20T01:49:51;99849.25;;;11.01;66.26
80644;BME280;70010;60.224;24.712;2023-07-20T01:52:17;99848.95;;;11.05;68.04
80644;BME280;70010;60.224;24.712;2023-07-20T01:54:42;99851.86;;;11.24;64.50
80644;BME280;70010;60.224;24.712;2023-07-20T01:57:07;99849.81;;;11.89;61.73
80644;BME280;70010;60.224;24.712;2023-07-20T01:59:33;99853.95;;;11.39;63.09
80644;BME280;70010;60.224;24.712;2023-07-20T02:01:58;99852.34;;;10.82;66.63
80644;BME280;70010;60.224;24.712;2023-07-20T02:04:23;99852.50;;;9.90;68.99
80644;BME280;70010;60.224;24.712;2023-07-20T02:06:49;99855.14;;;9.88;70.04
80644;BME280;70010;60.224;24.712;2023-07-20T02:09:14;99851.22;;;9.72;71.09
80644;BME280;70010;60.224;24.712;2023-07-20T02:11:39;99851.91;;;10.08;70.15
80644;BME280;70010;60.224;24.712;2023-07-20T02:14:05;99854.05;;;11.26;65.48
80644;BME280;70010;60.224;24.712;2023-07-20T02:16:30;99854.29;;;10.46;68.39
80644;BME280;70010;60.224;24.712;2023-07-20T02:18:56;99851.15;;;10.91;66.27
80644;BME280;70010;60.224;24.712;2023-07-20T02:21:21;99848.99;;;11.36;65.99
80644;BME280;70010;60.224;24.712;2023-07-20T02:23:46;99845.26;;;10.57;67.40
80644;BME280;70010;60.224;24.712;2023-07-20T02:26:11;99848.12;;;10.37;68.66
80644;BME280;70010;60.224;24.712;2023-07-20T02:28:37;99846.41;;;10.23;69.64
80644;BME280;70010;60.224;24.712;2023-07-20T02:31:02;99846.60;;;10.04;69.53
80644;BME280;70010;60.224;24.712;2023-07-20T02:33:27;99848.16;;;10.05;69.75
80644;BME280;70010;60.224;24.712;2023-07-20T02:35:52;99845.76;;;10.09;69.42
80644;BME280;70010;60.224;24.712;2023-07-20T02:38:18;99847.68;;;9.85;70.36
80644;BME280;70010;60.224;24.712;2023-07-20T02:40:43;99848.90;;;10.00;70.20
80644;BME280;70010;60.224;24.712;2023-07-20T02:43:08;99850.14;;;9.75;70.41
80644;BME280;70010;60.224;24.712;2023-07-20T02:45:34;99849.60;;;10.25;70.63
80644;BME280;70010;60.224;24.712;2023-07-20T02:47:59;99848.30;;;10.29;69.41
80644;BME280;70010;60.224;24.712;2023-07-20T02:50:24;99851.98;;;10.14;69.29
80644;BME280;70010;60.224;24.712;2023-07-20T02:52:49;99852.87;;;10.27;68.79
80644;BME280;70010;60.224;24.712;2023-07-20T02:55:15;99857.33;;;10.23;69.05
80644;BME280;70010;60.224;24.712;2023-07-20T02:57:40;99858.18;;;10.78;68.13
80644;BME280;70010;60.224;24.712;2023-07-20T03:00:06;99861.92;;;10.52;68.35
80644;BME280;70010;60.224;24.712;2023-07-20T03:02:30;99861.58;;;10.30;69.20
80644;BME280;70010;60.224;24.712;2023-07-20T03:04:56;99863.81;;;10.11;70.29
80644;BME280;70010;60.224;24.712;2023-07-20T03:07:21;99863.06;;;10.38;69.63
80644;BME280;70010;60.224;24.712;2023-07-20T03:09:46;99859.90;;;10.25;68.52
80644;BME280;70010;60.224;24.712;2023-07-20T03:12:12;99863.97;;;11.23;64.61
80644;BME280;70010;60.224;24.712;2023-07-20T03:14:37;99864.64;;;10.75;68.78
80644;BME280;70010;60.224;24.712;2023-07-20T03:17:03;99869.87;;;10.94;67.92
80644;BME280;70010;60.224;24.712;2023-07-20T03:19:28;99859.64;;;13.47;58.85
80644;BME280;70010;60.224;24.712;2023-07-20T03:21:53;99860.39;;;12.91;59.75
80644;BME280;70010;60.224;24.712;2023-07-20T03:24:18;99866.16;;;12.85;59.63
80644;BME280;70010;60.224;24.712;2023-07-20T03:26:44;99868.20;;;14.14;56.42
80644;BME280;70010;60.224;24.712;2023-07-20T03:29:09;99865.34;;;13.59;57.40
80644;BME280;70010;60.224;24.712;2023-07-20T03:31:34;99867.91;;;12.97;59.75
80644;BME280;70010;60.224;24.712;2023-07-20T03:34:00;99874.76;;;11.84;63.97
80644;BME280;70010;60.224;24.712;2023-07-20T03:36:25;99874.71;;;11.83;65.32
80644;BME280;70010;60.224;24.712;2023-07-20T03:38:50;99870.60;;;12.27;64.21
80644;BME280;70010;60.224;24.712;2023-07-20T03:41:15;99868.76;;;11.95;64.88
80644;BME280;70010;60.224;24.712;2023-07-20T03:43:41;99861.14;;;12.89;62.57
80644;BME280;70010;60.224;24.712;2023-07-20T03:46:06;99860.75;;;12.63;61.84
80644;BME280;70010;60.224;24.712;2023-07-20T03:48:32;99861.80;;;14.96;55.23
80644;BME280;70010;60.224;24.712;2023-07-20T03:50:57;99861.82;;;14.58;57.54
80644;BME280;70010;60.224;24.712;2023-07-20T03:53:23;99862.16;;;13.01;61.11
80644;BME280;70010;60.224;24.712;2023-07-20T03:55:49;99863.96;;;13.94;59.45
80644;BME280;70010;60.224;24.712;2023-07-20T03:58:14;99865.01;;;12.68;63.66
80644;BME280;70010;60.224;24.712;2023-07-20T04:00:39;99859.84;;;16.35;52.20
80644;BME280;70010;60.224;24.712;2023-07-20T04:03:04;99860.98;;;15.55;53.71
80644;BME280;70010;60.224;24.712;2023-07-20T04:05:29;99862.75;;;16.93;51.06
80644;BME280;70010;60.224;24.712;2023-07-20T04:07:54;99866.45;;;16.04;52.43
80644;BME280;70010;60.224;24.712;2023-07-20T04:10:19;99860.85;;;16.88;50.68
80644;BME280;70010;60.224;24.712;2023-07-20T04:12:45;99865.36;;;15.57;53.96
80644;BME280;70010;60.224;24.712;2023-07-20T04:15:11;99863.87;;;14.20;56.75
80644;BME280;70010;60.224;24.712;2023-07-20T04:17:36;99866.07;;;13.82;58.89
80644;BME280;70010;60.224;24.712;2023-07-20T04:20:01;99859.38;;;15.55;55.45
80644;BME280;70010;60.224;24.712;2023-07-20T04:22:26;99858.97;;;14.68;56.42
80644;BME280;70010;60.224;24.712;2023-07-20T04:24:51;99858.17;;;14.78;55.70
80644;BME280;70010;60.224;24.712;2023-07-20T04:27:17;99858.61;;;14.57;57.67
80644;BME280;70010;60.224;24.712;2023-07-20T04:29:42;99859.91;;;13.34;61.52
80644;BME280;70010;60.224;24.712;2023-07-20T04:32:07;99857.69;;;14.34;57.75
80644;BME280;70010;60.224;24.712;2023-07-20T04:34:32;99862.33;;;12.03;67.31
80644;BME280;70010;60.224;24.712;2023-07-20T04:36:58;99855.56;;;12.65;63.81
80644;BME280;70010;60.224;24.712;2023-07-20T04:39:23;99850.85;;;14.32;58.66
80644;BME280;70010;60.224;24.712;2023-07-20T04:41:49;99852.27;;;12.90;62.66
80644;BME280;70010;60.224;24.712;2023-07-20T04:44:14;99851.78;;;13.60;61.60
80644;BME280;70010;60.224;24.712;2023-07-20T04:46:39;99854.75;;;13.59;62.94
80644;BME280;70010;60.224;24.712;2023-07-20T04:49:04;99856.46;;;12.67;64.64
80644;BME280;70010;60.224;24.712;2023-07-20T04:51:30;99857.14;;;12.88;63.68
80644;BME280;70010;60.224;24.712;2023-07-20T04:53:55;99856.99;;;12.57;63.71
80644;BME280;70010;60.224;24.712;2023-07-20T04:56:21;99857.65;;;13.41;61.81
80644;BME280;70010;60.224;24.712;2023-07-20T04:58:46;99857.17;;;13.49;61.51
80644;BME280;70010;60.224;24.712;2023-07-20T05:01:12;99860.38;;;12.69;64.72
80644;BME280;70010;60.224;24.712;2023-07-20T05:03:37;99855.89;;;13.99;60.24
80644;BME280;70010;60.224;24.712;2023-07-20T05:06:02;99856.63;;;13.47;60.87
80644;BME280;70010;60.224;24.712;2023-07-20T05:08:28;99859.05;;;15.42;54.73
80644;BME280;70010;60.224;24.712;2023-07-20T05:10:53;99860.11;;;14.15;58.58
80644;BME280;70010;60.224;24.712;2023-07-20T05:13:18;99858.99;;;12.39;65.45
80644;BME280;70010;60.224;24.712;2023-07-20T05:15:44;99857.78;;;12.31;65.18
80644;BME280;70010;60.224;24.712;2023-07-20T05:18:10;99855.53;;;13.49;62.18
80644;BME280;70010;60.224;24.712;2023-07-20T05:20:35;99857.52;;;13.65;59.96
80644;BME280;70010;60.224;24.712;2023-07-20T05:23:00;99858.25;;;13.37;61.59
80644;BME280;70010;60.224;24.712;2023-07-20T05:25:25;99856.59;;;13.77;58.67
80644;BME280;70010;60.224;24.712;2023-07-20T05:27:52;99855.19;;;15.44;55.32
80644;BME280;70010;60.224;24.712;2023-07-20T05:30:16;99852.22;;;13.41;59.62
80644;BME280;70010;60.224;24.712;2023-07-20T05:32:41;99852.00;;;13.11;60.89
80644;BME280;70010;60.224;24.712;2023-07-20T05:35:07;99855.24;;;13.36;61.05
80644;BME280;70010;60.224;24.712;2023-07-20T05:37:32;99853.26;;;15.22;54.96
80644;BME280;70010;60.224;24.712;2023-07-20T05:39:57;99854.71;;;13.04;61.05
80644;BME280;70010;60.224;24.712;2023-07-20T05:42:22;99850.75;;;13.75;58.45
80644;BME280;70010;60.224;24.712;2023-07-20T05:44:48;99846.74;;;13.87;58.70
80644;BME280;70010;60.224;24.712;2023-07-20T05:47:13;99844.28;;;14.84;54.72
80644;BME280;70010;60.224;24.712;2023-07-20T05:49:39;99853.14;;;16.46;50.88
80644;BME280;70010;60.224;24.712;2023-07-20T05:52:05;99851.82;;;16.43;50.49
80644;BME280;70010;60.224;24.712;2023-07-20T05:54:29;99856.43;;;14.70;52.81
80644;BME280;70010;60.224;24.712;2023-07-20T05:56:54;99858.55;;;16.74;49.40
80644;BME280;70010;60.224;24.712;2023-07-20T05:59:20;99856.04;;;17.17;48.04
80644;BME280;70010;60.224;24.712;2023-07-20T06:01:45;99857.62;;;14.15;54.14
80644;BME280;70010;60.224;24.712;2023-07-20T06:04:10;99856.30;;;14.36;53.46
80644;BME280;70010;60.224;24.712;2023-07-20T06:06:35;99854.17;;;13.52;57.07
80644;BME280;70010;60.224;24.712;2023-07-20T06:09:01;99852.33;;;14.23;55.28
80644;BME280;70010;60.224;24.712;2023-07-20T06:11:26;99854.99;;;15.58;51.90
80644;BME280;70010;60.224;24.712;2023-07-20T06:13:51;99855.75;;;15.44;50.80
80644;BME280;70010;60.224;24.712;2023-07-20T06:16:16;99853.04;;;14.37;54.07
80644;BME280;70010;60.224;24.712;2023-07-20T06:18:42;99851.47;;;14.34;54.62
80644;BME280;70010;60.224;24.712;2023-07-20T06:21:07;99847.73;;;17.41;46.84
80644;BME280;70010;60.224;24.712;2023-07-20T06:23:32;99848.62;;;18.64;43.43
80644;BME280;70010;60.224;24.712;2023-07-20T06:25:57;99844.16;;;18.47;43.26
80644;BME280;70010;60.224;24.712;2023-07-20T06:28:22;99843.06;;;19.08;42.01
80644;BME280;70010;60.224;24.712;2023-07-20T06:30:48;99842.34;;;16.16;46.38
80644;BME280;70010;60.224;24.712;2023-07-20T06:33:13;99838.97;;;17.27;46.52
80644;BME280;70010;60.224;24.712;2023-07-20T06:35:41;99839.86;;;17.92;44.91
80644;BME280;70010;60.224;24.712;2023-07-20T06:38:03;99837.57;;;18.82;43.07
80644;BME280;70010;60.224;24.712;2023-07-20T06:40:29;99834.35;;;19.03;42.45
80644;BME280;70010;60.224;24.712;2023-07-20T06:42:54;99841.32;;;14.58;52.09
80644;BME280;70010;60.224;24.712;2023-07-20T06:45:19;99832.59;;;17.25;46.48
80644;BME280;70010;60.224;24.712;2023-07-20T06:47:45;99835.48;;;18.25;44.14
80644;BME280;70010;60.224;24.712;2023-07-20T06:50:10;99842.33;;;16.34;49.51
80644;BME280;70010;60.224;24.712;2023-07-20T06:52:36;99833.09;;;15.12;52.39
80644;BME280;70010;60.224;24.712;2023-07-20T06:55:01;99839.37;;;13.64;59.30
80644;BME280;70010;60.224;24.712;2023-07-20T06:57:26;99832.01;;;17.34;49.25
80644;BME280;70010;60.224;24.712;2023-07-20T06:59:51;99827.32;;;17.26;48.30
80644;BME280;70010;60.224;24.712;2023-07-20T07:02:16;99830.21;;;16.47;49.66
80644;BME280;70010;60.224;24.712;2023-07-20T07:04:42;99826.67;;;17.23;48.96
80644;BME280;70010;60.224;24.712;2023-07-20T07:07:07;99831.61;;;15.70;51.32
80644;BME280;70010;60.224;24.712;2023-07-20T07:09:32;99827.38;;;16.79;47.24
80644;BME280;70010;60.224;24.712;2023-07-20T07:11:57;99819.61;;;19.76;42.20
80644;BME280;70010;60.224;24.712;2023-07-20T07:14:22;99821.15;;;19.17;42.34
80644;BME280;70010;60.224;24.712;2023-07-20T07:16:47;99823.81;;;19.50;42.51
80644;BME280;70010;60.224;24.712;2023-07-20T07:19:13;99820.73;;;17.86;46.15
80644;BME280;70010;60.224;24.712;2023-07-20T07:21:38;99822.26;;;19.67;42.21
80644;BME280;70010;60.224;24.712;2023-07-20T07:24:03;99824.59;;;19.56;41.65
80644;BME280;70010;60.224;24.712;2023-07-20T07:26:28;99819.43;;;17.08;45.31
80644;BME280;70010;60.224;24.712;2023-07-20T07:28:54;99816.18;;;18.85;42.36
80644;BME280;70010;60.224;24.712;2023-07-20T07:31:19;99821.81;;;16.06;48.95
80644;BME280;70010;60.224;24.712;2023-07-20T07:33:44;99821.06;;;16.42;47.92
80644;BME280;70010;60.224;24.712;2023-07-20T07:36:09;99812.34;;;18.28;43.59
80644;BME280;70010;60.224;24.712;2023-07-20T07:38:34;99809.10;;;18.85;42.22
80644;BME280;70010;60.224;24.712;2023-07-20T07:41:00;99823.09;;;16.39;47.09
80644;BME280;70010;60.224;24.712;2023-07-20T07:43:25;99825.47;;;18.33;42.91
80644;BME280;70010;60.224;24.712;2023-07-20T07:45:52;99826.70;;;19.59;40.78
80644;BME280;70010;60.224;24.712;2023-07-20T07:48:15;99833.58;;;17.49;43.30
80644;BME280;70010;60.224;24.712;2023-07-20T07:50:40;99839.21;;;17.44;44.15
80644;BME280;70010;60.224;24.712;2023-07-20T07:53:06;99850.69;;;16.83;48.49
80644;BME280;70010;60.224;24.712;2023-07-20T07:55:31;99847.58;;;15.25;53.07
80644;BME280;70010;60.224;24.712;2023-07-20T07:57:56;99856.96;;;16.55;49.08
80644;BME280;70010;60.224;24.712;2023-07-20T08:00:21;99867.05;;;17.78;47.12
80644;BME280;70010;60.224;24.712;2023-07-20T08:02:47;99862.63;;;16.88;44.65
80644;BME280;70010;60.224;24.712;2023-07-20T08:05:12;99853.37;;;18.12;41.23
80644;BME280;70010;60.224;24.712;2023-07-20T08:07:37;99851.80;;;18.65;39.15
80644;BME280;70010;60.224;24.712;2023-07-20T08:10:02;99860.76;;;16.10;42.33
80644;BME280;70010;60.224;24.712;2023-07-20T08:12:27;99855.74;;;17.76;41.00
80644;BME280;70010;60.224;24.712;2023-07-20T08:14:52;99856.11;;;17.29;40.40
80644;BME280;70010;60.224;24.712;2023-07-20T08:17:18;99867.74;;;15.47;42.83
80644;BME280;70010;60.224;24.712;2023-07-20T08:19:43;99872.85;;;16.51;41.55
80644;BME280;70010;60.224;24.712;2023-07-20T08:22:08;99879.46;;;14.76;45.72
80644;BME280;70010;60.224;24.712;2023-07-20T08:24:33;99887.83;;;14.24;47.21
80644;BME280;70010;60.224;24.712;2023-07-20T08:26:58;99888.47;;;18.05;41.07
80644;BME280;70010;60.224;24.712;2023-07-20T08:29:24;99876.72;;;17.96;39.66
80644;BME280;70010;60.224;24.712;2023-07-20T08:31:49;99876.75;;;15.09;46.67
80644;BME280;70010;60.224;24.712;2023-07-20T08:34:14;99868.31;;;18.29;40.01
80644;BME280;70010;60.224;24.712;2023-07-20T08:36:39;99869.82;;;18.99;37.80
80644;BME280;70010;60.224;24.712;2023-07-20T08:39:05;99874.21;;;19.08;37.08
80644;BME280;70010;60.224;24.712;2023-07-20T08:41:30;99879.41;;;14.21;46.92
80644;BME280;70010;60.224;24.712;2023-07-20T08:43:57;99871.85;;;18.16;40.35
80644;BME280;70010;60.224;24.712;2023-07-20T08:46:20;99875.35;;;17.15;40.97
80644;BME280;70010;60.224;24.712;2023-07-20T08:48:46;99868.16;;;19.37;37.13
80644;BME280;70010;60.224;24.712;2023-07-20T08:51:11;99880.11;;;16.16;42.81
80644;BME280;70010;60.224;24.712;2023-07-20T08:53:36;99871.18;;;18.05;39.68
80644;BME280;70010;60.224;24.712;2023-07-20T08:56:02;99871.05;;;16.57;41.78
80644;BME280;70010;60.224;24.712;2023-07-20T08:58:27;99868.09;;;16.80;41.74
80644;BME280;70010;60.224;24.712;2023-07-20T09:00:52;99860.37;;;20.50;35.59
80644;BME280;70010;60.224;24.712;2023-07-20T09:03:17;99862.29;;;21.43;33.79
80644;BME280;70010;60.224;24.712;2023-07-20T09:05:42;99867.58;;;17.50;38.05
80644;BME280;70010;60.224;24.712;2023-07-20T09:08:07;99859.04;;;19.95;35.47
80644;BME280;70010;60.224;24.712;2023-07-20T09:10:32;99862.90;;;18.59;37.39
80644;BME280;70010;60.224;24.712;2023-07-20T09:12:57;99860.77;;;20.07;35.04
80644;BME280;70010;60.224;24.712;2023-07-20T09:15:23;99868.53;;;19.86;35.68
80644;BME280;70010;60.224;24.712;2023-07-20T09:17:49;99869.60;;;18.54;38.32
80644;BME280;70010;60.224;24.712;2023-07-20T09:20:15;99868.28;;;21.66;33.98
80644;BME280;70010;60.224;24.712;2023-07-20T09:22:38;99873.16;;;18.70;38.80
80644;BME280;70010;60.224;24.712;2023-07-20T09:25:06;99867.96;;;19.02;37.75
80644;BME280;70010;60.224;24.712;2023-07-20T09:27:35;99869.01;;;19.54;37.84
80644;BME280;70010;60.224;24.712;2023-07-20T09:29:54;99870.36;;;19.22;38.62
80644;BME280;70010;60.224;24.712;2023-07-20T09:32:21;99872.29;;;21.41;34.54
80644;BME280;70010;60.224;24.712;2023-07-20T09:34:44;99858.50;;;22.45;32.91
80644;BME280;70010;60.224;24.712;2023-07-20T09:37:10;99868.14;;;21.86;33.71
80644;BME280;70010;60.224;24.712;2023-07-20T09:39:43;99869.03;;;23.78;30.87
80644;BME280;70010;60.224;24.712;2023-07-20T09:42:00;99882.18;;;19.80;34.56
80644;BME280;70010;60.224;24.712;2023-07-20T09:44:27;99868.21;;;21.88;32.42
80644;BME280;70010;60.224;24.712;2023-07-20T09:46:50;99864.49;;;23.24;30.66
80644;BME280;70010;60.224;24.712;2023-07-20T09:49:17;99871.55;;;23.43;30.27
80644;BME280;70010;60.224;24.712;2023-07-20T09:51:41;99875.58;;;20.93;34.25
80644;BME280;70010;60.224;24.712;2023-07-20T09:54:06;99862.64;;;23.55;31.35
80644;BME280;70010;60.224;24.712;2023-07-20T09:56:33;99861.93;;;22.54;32.62
80644;BME280;70010;60.224;24.712;2023-07-20T09:58:57;99870.89;;;23.23;31.70
80644;BME280;70010;60.224;24.712;2023-07-20T10:01:21;99866.46;;;22.91;31.17
80644;BME280;70010;60.224;24.712;2023-07-20T10:03:47;99868.49;;;23.73;30.20
80644;BME280;70010;60.224;24.712;2023-07-20T10:06:15;99877.39;;;21.52;33.34
80644;BME280;70010;60.224;24.712;2023-07-20T10:08:39;99865.57;;;21.83;32.48
80644;BME280;70010;60.224;24.712;2023-07-20T10:11:02;99863.95;;;23.61;30.25
80644;BME280;70010;60.224;24.712;2023-07-20T10:13:29;99863.99;;;23.25;30.06
80644;BME280;70010;60.224;24.712;2023-07-20T10:15:54;99864.48;;;23.97;29.03
80644;BME280;70010;60.224;24.712;2023-07-20T10:18:24;99860.05;;;24.44;29.10
80644;BME280;70010;60.224;24.712;2023-07-20T10:20:44;99873.44;;;22.98;31.22
80644;BME280;70010;60.224;24.712;2023-07-20T10:23:08;99869.20;;;21.75;32.38
80644;BME280;70010;60.224;24.712;2023-07-20T10:25:33;99869.37;;;21.22;33.43
80644;BME280;70010;60.224;24.712;2023-07-20T10:27:58;99858.47;;;23.62;30.44
80644;BME280;70010;60.224;24.712;2023-07-20T10:30:24;99865.95;;;20.19;36.08
80644;BME280;70010;60.224;24.712;2023-07-20T10:32:49;99860.97;;;23.92;31.30
80644;BME280;70010;60.224;24.712;2023-07-20T10:35:15;99857.93;;;23.75;30.95
80644;BME280;70010;60.224;24.712;2023-07-20T10:37:46;99857.87;;;25.36;28.49
80644;BME280;70010;60.224;24.712;2023-07-20T10:42:33;99861.99;;;23.00;31.25
80644;BME280;70010;60.224;24.712;2023-07-20T10:44:55;99853.43;;;24.34;30.09
80644;BME280;70010;60.224;24.712;2023-07-20T10:47:21;99841.09;;;27.26;26.63
80644;BME280;70010;60.224;24.712;2023-07-20T10:49:57;99845.23;;;22.44;32.23
80644;BME280;70010;60.224;24.712;2023-07-20T10:52:11;99848.21;;;25.78;28.61
80644;BME280;70010;60.224;24.712;2023-07-20T11:01:55;99836.26;;;24.68;27.66
80644;BME280;70010;60.224;24.712;2023-07-20T11:04:17;99827.06;;;27.81;25.51
80644;BME280;70010;60.224;24.712;2023-07-20T11:06:43;99844.05;;;24.48;28.32
80644;BME280;70010;60.224;24.712;2023-07-20T11:09:09;99845.43;;;20.76;34.02
80644;BME280;70010;60.224;24.712;2023-07-20T11:11:33;99837.39;;;22.40;32.77
80644;BME280;70010;60.224;24.712;2023-07-20T11:13:59;99838.86;;;20.85;34.23
80644;BME280;70010;60.224;24.712;2023-07-20T11:18:48;99848.79;;;22.23;32.83
80644;BME280;70010;60.224;24.712;2023-07-20T11:21:13;99849.30;;;22.53;32.46
80644;BME280;70010;60.224;24.712;2023-07-20T11:23:39;99870.49;;;20.69;35.07
80644;BME280;70010;60.224;24.712;2023-07-20T11:26:03;99886.11;;;19.23;38.26
80644;BME280;70010;60.224;24.712;2023-07-20T11:28:30;99888.77;;;19.83;36.67
80644;BME280;70010;60.224;24.712;2023-07-20T11:30:54;99879.81;;;18.42;37.03
80644;BME280;70010;60.224;24.712;2023-07-20T11:33:19;99883.10;;;18.24;36.84
80644;BME280;70010;60.224;24.712;2023-07-20T11:35:45;99892.58;;;18.33;37.12
80644;BME280;70010;60.224;24.712;2023-07-20T11:38:10;99880.73;;;19.58;35.17
80644;BME280;70010;60.224;24.712;2023-07-20T11:40:35;99887.29;;;18.47;36.56
80644;BME280;70010;60.224;24.712;2023-07-20T11:43:01;99885.51;;;20.26;34.73
80644;BME280;70010;60.224;24.712;2023-07-20T11:45:26;99898.89;;;19.05;35.59
80644;BME280;70010;60.224;24.712;2023-07-20T11:47:51;99910.99;;;19.71;35.65
80644;BME280;70010;60.224;24.712;2023-07-20T11:50:16;99921.25;;;18.11;38.70
80644;BME280;70010;60.224;24.712;2023-07-20T11:52:42;99918.60;;;20.41;35.14
80644;BME280;70010;60.224;24.712;2023-07-20T11:55:08;99917.01;;;19.32;37.48
80644;BME280;70010;60.224;24.712;2023-07-20T11:57:33;99917.41;;;18.32;39.04
80644;BME280;70010;60.224;24.712;2023-07-20T12:00:02;99915.00;;;17.79;39.52
80644;BME280;70010;60.224;24.712;2023-07-20T12:02:23;99916.99;;;15.91;45.36
80644;BME280;70010;60.224;24.712;2023-07-20T12:04:48;99919.37;;;16.21;45.07
80644;BME280;70010;60.224;24.712;2023-07-20T12:07:13;99924.64;;;17.17;44.14
80644;BME280;70010;60.224;24.712;2023-07-20T12:09:38;99927.80;;;18.06;42.05
80644;BME280;70010;60.224;24.712;2023-07-20T12:12:09;99939.33;;;21.41;36.67
80644;BME280;70010;60.224;24.712;2023-07-20T12:14:29;99938.93;;;20.32;38.74
80644;BME280;70010;60.224;24.712;2023-07-20T12:16:54;99927.56;;;23.06;35.38
80644;BME280;70010;60.224;24.712;2023-07-20T12:19:19;99918.76;;;24.73;32.20
80644;BME280;70010;60.224;24.712;2023-07-20T12:21:44;99916.86;;;24.62;31.68
80644;BME280;70010;60.224;24.712;2023-07-20T12:24:10;99925.33;;;22.46;35.15
80644;BME280;70010;60.224;24.712;2023-07-20T12:26:35;99928.78;;;21.98;36.22
80644;BME280;70010;60.224;24.712;2023-07-20T12:29:01;99920.28;;;23.42;33.08
80644;BME280;70010;60.224;24.712;2023-07-20T12:31:26;99924.22;;;20.23;38.35
80644;BME280;70010;60.224;24.712;2023-07-20T12:33:51;99923.06;;;21.34;36.62
80644;BME280;70010;60.224;24.712;2023-07-20T12:36:16;99916.20;;;22.34;35.64
80644;BME280;70010;60.224;24.712;2023-07-20T12:38:41;99916.28;;;21.92;35.61
80644;BME280;70010;60.224;24.712;2023-07-20T12:41:06;99926.47;;;19.08;41.00
80644;BME280;70010;60.224;24.712;2023-07-20T12:43:31;99923.87;;;21.03;38.09
80644;BME280;70010;60.224;24.712;2023-07-20T12:45:56;99922.68;;;21.04;37.81
80644;BME280;70010;60.224;24.712;2023-07-20T12:48:22;99909.92;;;22.46;35.51
80644;BME280;70010;60.224;24.712;2023-07-20T12:50:47;99910.92;;;22.01;35.87
80644;BME280;70010;60.224;24.712;2023-07-20T12:53:12;99914.73;;;21.30;38.32